Time;durP1;ratioP1;P1;durP2;ratioP2;P2;SDS_P1;SDS_P2;PMS_P1;PMS_P2;Temp;Humidity;BMP_temperature;BMP_pressure;BME280_temperature;BME280_humidity;BME280_pressure;Samples;Min_cycle;Max_cycle;Signal;HPM_P1;HPM_P2
2021/01/14 00:00:13;;;;;;;52.42;24.15;;;;;;;-4.32;98.48;97564.91;4883446;29;20088;-87
2021/01/14 00:02:38;;;;;;;30.23;20.23;;;;;;;-4.11;98.83;97549.44;4902696;29;20084;-85
2021/01/14 00:05:08;;;;;;;45.97;23.48;;;;;;;-4.04;98.38;97552.06;4885982;29;20033;-83
2021/01/14 00:07:33;;;;;;;49.45;27.23;;;;;;;-4.22;97.71;97546.59;4886593;29;20040;-82
2021/01/14 00:09:59;;;;;;;47.95;24.75;;;;;;;-4.21;97.57;97526.88;4902661;29;20036;-85
2021/01/14 00:12:24;;;;;;;37.03;21.70;;;;;;;-4.20;97.42;97536.53;4886464;29;20032;-84
2021/01/14 00:14:50;;;;;;;40.03;22.60;;;;;;;-4.16;97.23;97533.22;4888333;29;20048;-86
2021/01/14 00:17:16;;;;;;;39.75;17.65;;;;;;;-4.21;96.86;97534.88;4904027;29;20027;-85
2021/01/14 00:19:41;;;;;;;32.53;19.02;;;;;;;-4.11;97.13;97535.25;4902909;29;20558;-85
2021/01/14 00:22:06;;;;;;;43.13;23.23;;;;;;;-4.32;96.89;97522.22;4903531;29;20033;-84
2021/01/14 00:24:32;;;;;;;39.53;20.33;;;;;;;-4.39;96.71;97512.41;4886730;29;20111;-84
2021/01/14 00:26:57;;;;;;;35.88;21.17;;;;;;;-4.44;96.56;97514.88;4886595;29;20120;-84
2021/01/14 00:29:23;;;;;;;32.97;18.50;;;;;;;-4.52;96.60;97500.94;4904310;29;20033;-86
2021/01/14 00:31:48;;;;;;;32.22;20.10;;;;;;;-4.82;96.79;97483.84;4887049;29;20124;-88
2021/01/14 00:34:14;;;;;;;33.13;19.33;;;;;;;-4.60;96.86;97509.16;4887509;29;20040;-86
2021/01/14 00:39:27;;;;;;;42.67;19.42;;;;;;;-4.55;96.71;97502.19;4905510;29;20578;-86
2021/01/14 00:41:53;;;;;;;28.08;18.05;;;;;;;-4.50;96.88;97509.56;4890153;29;20432;-86
2021/01/14 00:44:19;;;;;;;33.42;19.02;;;;;;;-4.48;96.49;97497.63;4889528;29;20021;-86
2021/01/14 00:46:44;;;;;;;33.92;20.10;;;;;;;-4.55;96.71;97501.38;4906219;29;20025;-86
2021/01/14 00:49:10;;;;;;;40.55;18.50;;;;;;;-4.42;96.59;97494.13;4905687;29;20029;-85
2021/01/14 00:51:36;;;;;;;36.83;17.90;;;;;;;-4.38;96.74;97490.00;4884766;29;20064;-85
2021/01/14 00:54:03;;;;;;;32.20;18.25;;;;;;;-4.25;95.62;97473.09;4901990;29;20028;-85
2021/01/14 00:56:33;;;;;;;40.75;19.33;;;;;;;-4.17;95.51;97472.88;4884513;29;20036;-84
2021/01/14 00:58:59;;;;;;;37.80;19.98;;;;;;;-4.20;95.21;97448.44;4901165;29;20062;-85
2021/01/14 01:01:26;;;;;;;35.85;19.33;;;;;;;-4.23;95.52;97451.53;4901206;29;20032;-85
2021/01/14 01:03:52;;;;;;;36.72;18.83;;;;;;;-4.21;96.08;97455.63;4902925;29;20160;-84
2021/01/14 01:06:19;;;;;;;26.95;17.08;;;;;;;-4.11;95.90;97461.31;4901991;29;20036;-85
2021/01/14 01:08:45;;;;;;;34.33;20.15;;;;;;;-4.22;95.69;97463.84;4901636;29;20930;-82
2021/01/14 01:11:11;;;;;;;36.30;18.30;;;;;;;-4.07;95.82;97472.41;4885247;29;20115;-86
2021/01/14 01:13:36;;;;;;;33.58;16.50;;;;;;;-4.06;96.01;97466.00;4884618;29;20028;-85
2021/01/14 01:16:01;;;;;;;38.60;19.50;;;;;;;-4.29;95.43;97439.84;4901509;29;20040;-86
2021/01/14 01:18:27;;;;;;;43.78;20.08;;;;;;;-4.11;95.48;97460.50;4902262;29;20112;-85
2021/01/14 01:20:52;;;;;;;44.92;18.55;;;;;;;-4.26;95.12;97443.97;4886457;29;20033;-84
2021/01/14 01:23:17;;;;;;;33.53;18.35;;;;;;;-4.30;95.60;97445.44;4893317;29;20071;-85
2021/01/14 01:25:43;;;;;;;29.83;16.33;;;;;;;-4.41;95.38;97423.72;4914496;29;20039;-85
2021/01/14 01:28:08;;;;;;;30.98;16.10;;;;;;;-4.44;95.40;97429.47;4897775;29;20032;-84
2021/01/14 01:30:34;;;;;;;33.80;19.10;;;;;;;-4.44;95.37;97450.00;4914534;29;20043;-84
2021/01/14 01:32:59;;;;;;;35.65;19.08;;;;;;;-4.53;95.38;97435.28;4897543;29;20084;-86
2021/01/14 01:35:24;;;;;;;34.40;17.75;;;;;;;-4.56;95.62;97441.84;4915354;29;20049;-88
2021/01/14 01:37:50;;;;;;;28.02;16.52;;;;;;;-4.53;95.61;97427.28;4890176;29;20031;-86
2021/01/14 01:40:15;;;;;;;36.15;19.52;;;;;;;-4.37;95.65;97419.59;4889562;29;20119;-87
2021/01/14 01:42:41;;;;;;;31.40;18.10;;;;;;;-4.39;95.42;97400.31;4891090;29;20009;-84
2021/01/14 01:45:07;;;;;;;31.33;16.55;;;;;;;-4.46;96.13;97388.88;4907996;29;20032;-86
2021/01/14 01:47:33;;;;;;;32.80;17.55;;;;;;;-4.45;96.24;97406.50;4892894;29;20048;-87
2021/01/14 01:50:04;;;;;;;37.20;18.58;;;;;;;-4.32;96.20;97418.94;4909275;29;20039;-86
2021/01/14 01:52:32;;;;;;;28.58;17.65;;;;;;;-4.38;95.65;97382.44;4888223;29;20029;-85
2021/01/14 01:54:58;;;;;;;38.92;18.00;;;;;;;-4.32;96.18;97417.09;4887479;29;20039;-84
2021/01/14 01:57:23;;;;;;;29.63;17.67;;;;;;;-4.42;96.36;97378.59;4904369;29;20115;-85
2021/01/14 01:59:49;;;;;;;31.40;16.48;;;;;;;-4.38;96.25;97374.44;4904434;29;20028;-86
2021/01/14 02:02:27;;;;;;;34.05;18.83;;;;;;;-4.36;95.85;97391.88;4887482;29;20032;-86
2021/01/14 02:04:54;;;;;;;36.20;15.40;;;;;;;-4.30;95.97;97389.38;4887530;29;20024;-85
2021/01/14 02:07:47;;;;;;;40.40;19.17;;;;;;;-4.31;96.13;97391.22;4883657;29;20060;-86
2021/01/14 02:10:33;;;;;;;34.63;18.05;;;;;;;-4.43;96.34;97369.75;4902868;29;20044;-85
2021/01/14 02:13:19;;;;;;;39.75;20.35;;;;;;;-4.51;96.80;97370.00;4901784;29;20040;-85
2021/01/14 02:15:47;;;;;;;;;;;;;;;-4.49;96.83;97361.78;4902736;29;20088;-87
2021/01/14 02:18:20;;;;;;;37.90;18.38;;;;;;;-4.51;96.92;97364.66;4886007;29;19920;-87
2021/01/14 02:20:50;;;;;;;40.33;19.85;;;;;;;-4.59;97.12;97348.94;4887077;29;20032;-85
2021/01/14 02:23:33;;;;;;;35.63;19.30;;;;;;;-4.49;97.38;97346.59;4885886;29;20088;-85
2021/01/14 02:25:58;;;;;;;36.15;19.80;;;;;;;-4.61;97.64;97363.50;4886884;29;20029;-86
2021/01/14 02:28:24;;;;;;;29.75;17.52;;;;;;;-4.50;97.50;97368.16;4905531;29;20029;-87
2021/01/14 02:30:50;;;;;;;44.45;19.90;;;;;;;-4.42;97.31;97376.72;4904539;29;20513;-86
2021/01/14 02:33:15;;;;;;;38.13;19.42;;;;;;;-4.44;97.38;97364.63;4886906;29;20032;-83
2021/01/14 02:35:41;;;;;;;43.30;20.20;;;;;;;-4.45;97.46;97353.13;4885596;29;20140;-86
2021/01/14 02:38:06;;;;;;;33.70;18.80;;;;;;;-4.47;97.39;97339.19;4886420;29;20219;-85
2021/01/14 02:40:31;;;;;;;35.75;19.00;;;;;;;-4.59;97.57;97314.25;4886301;29;20049;-87
2021/01/14 02:42:57;;;;;;;33.35;18.08;;;;;;;-4.56;97.68;97318.31;4886656;29;20033;-86
2021/01/14 02:45:22;;;;;;;42.60;20.63;;;;;;;-4.37;97.63;97312.84;4903459;29;20025;-87
2021/01/14 02:47:50;;;;;;;41.33;20.35;;;;;;;-4.34;97.38;97299.06;4888184;29;21618;-86
2021/01/14 02:50:17;;;;;;;34.53;17.05;;;;;;;-4.36;97.16;97281.66;4887751;29;20164;-85
2021/01/14 02:52:44;;;;;;;40.20;23.58;;;;;;;-4.40;96.69;97289.28;4904624;29;20033;-85
2021/01/14 02:55:12;;;;;;;41.03;21.45;;;;;;;-4.42;96.89;97275.31;4887269;29;20025;-87
2021/01/14 02:57:39;;;;;;;43.88;21.60;;;;;;;-4.47;96.80;97287.69;4903403;29;20029;-86
2021/01/14 03:00:05;;;;;;;36.10;21.17;;;;;;;-4.53;96.71;97302.72;4902196;29;20032;-84
2021/01/14 03:02:30;;;;;;;44.20;21.95;;;;;;;-4.66;97.62;97305.47;4883460;29;20483;-86
2021/01/14 03:04:56;;;;;;;39.88;21.63;;;;;;;-4.68;97.81;97304.06;4883333;29;20024;-87
2021/01/14 03:07:21;;;;;;;38.75;21.38;;;;;;;-4.68;97.81;97290.72;4883821;29;20029;-86
2021/01/14 03:09:47;;;;;;;35.58;20.08;;;;;;;-4.65;97.89;97283.09;4902177;29;20076;-85
2021/01/14 03:12:12;;;;;;;43.38;20.48;;;;;;;-4.52;97.06;97271.53;4888903;29;20395;-86
2021/01/14 03:14:37;;;;;;;39.95;18.98;;;;;;;-4.32;96.32;97259.63;4907164;29;20130;-86
2021/01/14 03:17:03;;;;;;;32.97;19.77;;;;;;;-4.38;95.98;97260.50;4889539;29;20037;-85
2021/01/14 03:19:28;;;;;;;35.90;20.42;;;;;;;-4.54;96.51;97245.03;4890960;29;20040;-87
2021/01/14 03:22:00;;;;;;;35.30;19.55;;;;;;;-4.49;96.34;97245.22;4908352;29;20382;-85
2021/01/14 03:24:26;;;;;;;34.83;19.48;;;;;;;-4.60;96.63;97272.59;4890403;29;20033;-86
2021/01/14 03:26:52;;;;;;;34.03;20.40;;;;;;;-4.59;96.54;97276.91;4889444;29;20037;-85
2021/01/14 03:29:18;;;;;;;31.75;18.48;;;;;;;-4.54;96.58;97284.28;4890519;29;20176;-84
2021/01/14 03:31:43;;;;;;;36.38;17.77;;;;;;;-4.60;96.42;97277.09;4906837;29;20036;-88
2021/01/14 03:34:08;;;;;;;30.05;16.95;;;;;;;-4.49;96.21;97247.91;4905861;29;20033;-85
2021/01/14 03:36:34;;;;;;;27.85;16.05;;;;;;;-4.52;95.92;97243.00;4885093;29;20605;-83
2021/01/14 03:39:00;;;;;;;31.83;16.40;;;;;;;-4.57;96.34;97247.31;4885392;29;20028;-86
2021/01/14 03:41:26;;;;;;;38.78;19.98;;;;;;;-4.56;96.30;97271.13;4885821;29;20024;-84
2021/01/14 03:43:52;;;;;;;37.53;18.77;;;;;;;-4.69;96.28;97265.88;4885634;29;20032;-85
2021/01/14 03:46:21;;;;;;;38.88;20.38;;;;;;;-4.54;96.94;97263.72;4885990;29;20081;-81
2021/01/14 03:48:48;;;;;;;40.92;20.63;;;;;;;-4.72;96.92;97255.66;4902197;29;20021;-83
2021/01/14 03:51:21;;;;;;;37.88;18.98;;;;;;;-4.66;96.91;97249.47;4885576;29;20064;-85
2021/01/14 03:53:51;;;;;;;33.22;16.55;;;;;;;-4.64;97.49;97238.59;4885787;29;20039;-86
2021/01/14 03:56:17;;;;;;;34.83;18.33;;;;;;;-4.70;97.30;97189.59;4903195;29;20033;-82
2021/01/14 03:58:43;;;;;;;29.83;16.77;;;;;;;-4.67;96.91;97199.84;4886155;29;20068;-86
2021/01/14 04:01:09;;;;;;;31.30;18.17;;;;;;;-4.45;96.97;97186.91;4886122;29;20047;-86
2021/01/14 04:03:41;;;;;;;39.50;21.33;;;;;;;-4.34;96.26;97195.00;4889569;29;20374;-82
2021/01/14 04:06:08;;;;;;;44.28;20.30;;;;;;;-4.64;96.44;97194.06;4907569;29;20069;-86
2021/01/14 04:08:33;;;;;;;39.03;20.70;;;;;;;-4.67;96.95;97196.34;4901020;29;20025;-88
2021/01/14 04:10:59;;;;;;;30.55;17.10;;;;;;;-4.57;96.48;97205.47;4907453;29;20040;-86
2021/01/14 04:13:24;;;;;;;34.55;18.33;;;;;;;-4.55;96.82;97197.25;4907114;29;20015;-85
2021/01/14 04:15:50;;;;;;;31.45;18.60;;;;;;;-4.37;96.38;97184.78;4922437;29;20080;-85
2021/01/14 04:18:15;;;;;;;31.10;16.60;;;;;;;-4.38;95.84;97193.81;4921957;29;20065;-87
2021/01/14 04:20:41;;;;;;;28.25;17.23;;;;;;;-4.28;95.51;97198.66;4923720;29;20024;-85
2021/01/14 04:23:06;;;;;;;31.30;15.95;;;;;;;-4.16;95.21;97191.53;4906426;29;20016;-88
2021/01/14 04:25:32;;;;;;;25.80;17.58;;;;;;;-4.12;94.36;97191.91;4906972;29;20040;-89
2021/01/14 04:28:02;;;;;;;31.90;16.40;;;;;;;-3.92;94.09;97205.88;4904971;29;20036;-85
2021/01/14 04:30:31;;;;;;;32.70;15.70;;;;;;;-3.96;93.55;97202.00;4923550;29;20032;-84
2021/01/14 04:33:10;;;;;;;29.23;13.80;;;;;;;-3.88;93.40;97199.03;4906620;29;20028;-88
2021/01/14 04:35:45;;;;;;;24.02;13.13;;;;;;;-3.82;92.28;97188.28;4906523;29;20025;-85
2021/01/14 04:38:11;;;;;;;18.88;11.45;;;;;;;-3.88;92.57;97212.38;4907839;29;20016;-84
2021/01/14 04:40:37;;;;;;;23.98;12.80;;;;;;;-3.99;92.37;97208.63;4907753;29;20032;-82
2021/01/14 04:43:05;;;;;;;20.55;11.23;;;;;;;-4.25;92.55;97189.38;4924393;29;20073;-87
2021/01/14 04:45:32;;;;;;;25.65;12.05;;;;;;;-3.94;92.79;97173.22;4906894;29;20025;-86
2021/01/14 04:47:57;;;;;;;16.05;11.13;;;;;;;-3.85;92.28;97179.88;4923528;29;20043;-83
2021/01/14 04:50:26;;;;;;;19.58;11.95;;;;;;;-3.99;93.13;97173.91;4906458;29;20032;-83
2021/01/14 04:52:58;;;;;;;33.15;13.98;;;;;;;-3.94;93.46;97183.91;4922714;29;20028;-89
2021/01/14 04:55:29;;;;;;;23.25;12.77;;;;;;;-3.87;92.86;97181.97;4907094;29;20035;-88
2021/01/14 04:57:54;;;;;;;18.25;12.27;;;;;;;-3.91;93.22;97178.94;4923602;29;20022;-87
2021/01/14 05:00:27;;;;;;;28.23;15.85;;;;;;;-3.85;93.14;97193.25;4923563;29;20048;-86
2021/01/14 05:02:58;;;;;;;35.60;14.70;;;;;;;-3.63;92.91;97198.97;4924012;29;20033;-86
2021/01/14 05:05:25;;;;;;;23.83;13.77;;;;;;;-3.64;93.73;97195.47;4907980;29;20037;-84
2021/01/14 05:08:07;;;;;;;25.50;13.65;;;;;;;-3.66;93.67;97186.84;4907135;29;20012;-86
2021/01/14 05:10:35;;;;;;;30.70;14.48;;;;;;;-3.54;93.09;97176.25;4907030;29;20025;-84
2021/01/14 05:13:02;;;;;;;32.42;13.68;;;;;;;-3.45;92.49;97178.38;4922522;29;20019;-85
2021/01/14 05:15:28;;;;;;;22.88;14.27;;;;;;;-3.59;92.87;97160.88;4906489;29;20069;-85
2021/01/14 05:17:58;;;;;;;22.13;13.43;;;;;;;-3.49;92.72;97182.53;4907240;29;20009;-87
2021/01/14 05:20:25;;;;;;;25.75;14.43;;;;;;;-3.41;92.39;97171.50;4907562;29;20033;-84
2021/01/14 05:22:56;;;;;;;23.60;13.20;;;;;;;-3.32;91.67;97167.47;4907499;29;20072;-85
2021/01/14 05:25:21;;;;;;;23.70;10.63;;;;;;;-3.39;91.70;97165.97;4907047;29;20024;-82
2021/01/14 05:27:47;;;;;;;16.73;10.88;;;;;;;-3.40;91.17;97156.31;4923078;29;20021;-83
2021/01/14 05:30:13;;;;;;;15.98;9.07;;;;;;;-3.37;90.96;97154.00;4906870;29;20046;-85
2021/01/14 05:32:44;;;;;;;16.15;10.20;;;;;;;-3.21;90.69;97170.44;4906502;29;20016;-83
2021/01/14 05:35:12;;;;;;;19.58;10.30;;;;;;;-3.26;90.37;97161.22;4907485;29;20035;-83
2021/01/14 05:37:42;;;;;;;23.77;9.05;;;;;;;-3.39;90.34;97153.41;4907678;29;20020;-82
2021/01/14 05:40:10;;;;;;;24.15;11.02;;;;;;;-3.31;91.59;97144.25;4907452;29;20041;-85
2021/01/14 05:42:36;;;;;;;16.98;9.63;;;;;;;-3.31;91.05;97138.91;4907140;29;20029;-83
2021/01/14 05:45:01;;;;;;;18.33;11.10;;;;;;;-3.21;91.04;97178.44;4923650;29;20061;-85
2021/01/14 05:47:28;;;;;;;;;;;;;;;-3.13;90.71;97151.41;4907477;29;20051;-83
2021/01/14 05:49:54;;;;;;;22.58;11.35;;;;;;;-3.17;90.57;97171.63;4923197;29;19904;-85
2021/01/14 05:52:22;;;;;;;17.98;9.10;;;;;;;-3.05;90.76;97175.13;4923146;29;20113;-84
2021/01/14 05:54:57;;;;;;;16.00;10.00;;;;;;;-3.00;91.09;97153.84;4906983;29;20037;-84
2021/01/14 05:57:30;;;;;;;21.63;10.25;;;;;;;-2.92;90.40;97161.56;4906040;29;20028;-87
2021/01/14 05:59:55;;;;;;;23.52;11.50;;;;;;;-3.10;90.29;97164.31;4921535;29;20017;-84
2021/01/14 06:02:29;;;;;;;13.73;9.32;;;;;;;-3.11;90.85;97157.31;4906511;29;20089;-84
2021/01/14 06:04:54;;;;;;;20.33;12.07;;;;;;;-3.25;91.52;97117.41;4906787;29;20051;-90
2021/01/14 06:07:21;;;;;;;23.58;13.25;;;;;;;-3.24;91.53;97120.91;4911590;29;20028;-86
2021/01/14 06:09:48;;;;;;;20.60;11.05;;;;;;;-3.17;91.85;97136.84;4922756;29;20048;-88
2021/01/14 06:12:15;;;;;;;25.90;11.57;;;;;;;-3.10;91.43;97110.84;4922366;29;20040;-86
2021/01/14 06:14:41;;;;;;;25.42;13.45;;;;;;;-3.23;91.72;97175.19;4938301;29;20108;-88
2021/01/14 06:17:08;;;;;;;24.88;11.50;;;;;;;-3.18;91.87;97153.94;4911388;29;20028;-84
2021/01/14 06:19:34;;;;;;;36.60;15.10;;;;;;;-3.13;91.85;97138.03;4926653;29;20033;-85
2021/01/14 06:22:00;;;;;;;21.83;13.95;;;;;;;-3.18;93.07;97199.38;4921209;29;20021;-87
2021/01/14 06:24:36;;;;;;;31.38;14.68;;;;;;;-3.11;92.62;97160.00;4921623;29;20077;-86
2021/01/14 06:27:04;;;;;;;28.83;15.53;;;;;;;-3.10;92.84;97165.09;4905325;29;20052;-82
2021/01/14 06:29:36;;;;;;;27.20;14.48;;;;;;;-3.16;93.20;97155.31;4912638;29;20032;-85
2021/01/14 06:32:09;;;;;;;26.05;13.35;;;;;;;-2.95;92.55;97152.16;4920553;29;20139;-87
2021/01/14 06:34:36;;;;;;;20.30;13.32;;;;;;;-3.07;92.21;97163.84;4910426;29;20011;-87
2021/01/14 06:37:14;;;;;;;27.33;13.68;;;;;;;-3.22;92.03;97166.13;4923455;29;20028;-85
2021/01/14 06:39:45;;;;;;;23.45;11.95;;;;;;;-3.27;91.80;97137.41;4924715;29;20016;-86
2021/01/14 06:42:22;;;;;;;22.58;11.70;;;;;;;-3.20;91.33;97159.53;4915321;29;20028;-86
2021/01/14 06:44:59;;;;;;;22.98;11.68;;;;;;;-3.12;91.12;97161.03;4941046;29;20032;-83
2021/01/14 06:47:43;;;;;;;25.58;11.40;;;;;;;-3.21;91.75;97175.78;4940673;29;20024;-85
2021/01/14 06:50:25;;;;;;;23.70;11.75;;;;;;;-3.37;92.18;97167.34;4921963;29;20047;-83
2021/01/14 06:53:15;;;;;;;20.00;11.90;;;;;;;-3.52;92.36;97161.59;4938350;29;20020;-85
2021/01/14 06:56:28;;;;;;;16.25;10.43;;;;;;;-3.28;91.79;97171.34;4923638;29;20043;-85
2021/01/14 06:58:57;;;;;;;28.15;15.50;;;;;;;-3.43;91.71;97159.44;4914106;29;20263;-90
2021/01/14 07:01:25;;;;;;;25.00;15.27;;;;;;;-3.38;91.69;97179.09;4886520;29;20049;-87
2021/01/14 07:04:09;;;;;;;25.48;15.30;;;;;;;-3.71;92.28;97162.69;4919384;29;20028;-88
2021/01/14 07:07:25;;;;;;;26.25;15.38;;;;;;;-3.60;92.74;97169.91;4938654;29;20027;-87
2021/01/14 07:10:27;;;;;;;34.53;16.52;;;;;;;-3.47;93.06;97175.09;4902526;29;20100;-87
2021/01/14 07:13:57;;;;;;;30.75;16.02;;;;;;;-3.82;93.02;97136.72;4880965;29;20036;-87
2021/01/14 07:16:47;;;;;;;31.88;17.42;;;;;;;-3.70;92.96;97148.28;4807833;29;20051;-90
2021/01/14 07:19:12;;;;;;;30.52;17.50;;;;;;;-3.66;93.04;97175.34;4854209;29;20159;-90
2021/01/14 07:21:42;;;;;;;32.83;19.48;;;;;;;-3.40;92.68;97159.78;4863244;29;20041;-88
2021/01/14 07:24:28;;;;;;;38.50;18.45;;;;;;;-3.60;92.71;97155.78;4864283;29;20037;-88
2021/01/14 07:27:02;;;;;;;37.03;18.08;;;;;;;-3.42;92.90;97180.59;4880039;29;20054;-89
2021/01/14 07:29:32;;;;;;;35.58;19.35;;;;;;;-3.21;92.14;97189.13;4866824;29;20026;-87
2021/01/14 07:32:00;;;;;;;28.08;16.23;;;;;;;-3.08;90.97;97205.81;4867013;29;20041;-88
2021/01/14 07:34:41;;;;;;;24.50;13.77;;;;;;;-3.01;91.11;97224.44;4903264;29;20060;-90
2021/01/14 07:37:17;;;;;;;31.58;16.63;;;;;;;-3.01;91.33;97205.72;4914330;29;20108;-86
2021/01/14 07:40:14;;;;;;;25.67;14.27;;;;;;;-2.81;90.81;97215.06;4918802;29;20047;-92
2021/01/14 07:43:09;;;;;;;25.88;14.40;;;;;;;-2.86;90.14;97214.13;4917616;29;20100;-87
2021/01/14 07:45:35;;;;;;;25.42;14.32;;;;;;;-2.65;89.47;97221.63;4916410;29;20041;-89
2021/01/14 07:48:18;;;;;;;32.97;15.75;;;;;;;-2.78;89.88;97217.28;4918134;29;20017;-91
2021/01/14 07:50:59;;;;;;;27.23;16.13;;;;;;;-2.80;90.27;97192.63;4914755;29;20112;-91
2021/01/14 07:53:48;;;;;;;33.25;17.02;;;;;;;-2.62;89.89;97202.44;4916193;29;20017;-91
2021/01/14 07:56:45;;;;;;;24.40;16.55;;;;;;;-2.54;89.47;97228.06;4898938;29;20037;-93
2021/01/14 07:59:13;;;;;;;30.30;15.45;;;;;;;-2.62;88.95;97204.28;4899051;29;20017;-91
2021/01/14 08:01:58;;;;;;;25.95;14.57;;;;;;;-2.29;88.38;97244.72;4898042;29;20033;-92
2021/01/14 08:04:24;;;;;;;34.30;17.63;;;;;;;-1.97;88.17;97234.50;4899038;29;20052;-90
2021/01/14 08:06:51;;;;;;;32.05;16.00;;;;;;;-2.20;87.26;97206.66;4899503;29;20029;-88
2021/01/14 08:09:19;;;;;;;23.05;12.80;;;;;;;-2.03;87.39;97200.59;4900237;29;20039;-90
2021/01/14 08:11:50;;;;;;;25.00;13.38;;;;;;;-1.67;86.58;97259.28;4900825;29;20033;-88
2021/01/14 08:14:16;;;;;;;27.00;13.82;;;;;;;-2.08;87.13;97219.22;4902124;29;20045;-87
2021/01/14 08:16:46;;;;;;;26.92;15.85;;;;;;;-1.66;86.90;97260.91;4908190;29;20035;-86
2021/01/14 08:19:37;;;;;;;17.48;11.35;;;;;;;-1.55;85.59;97260.06;4920989;29;20021;-86
2021/01/14 08:22:11;;;;;;;25.88;12.32;;;;;;;-1.80;85.77;97259.53;4921674;29;20045;-88
2021/01/14 08:24:53;;;;;;;20.95;11.93;;;;;;;-1.78;85.80;97244.00;4922351;29;20522;-86
2021/01/14 08:27:31;;;;;;;23.20;12.48;;;;;;;-1.58;84.35;97243.66;4923879;29;20017;-86
2021/01/14 08:32:42;;;;;;;27.17;12.45;;;;;;;-1.65;85.29;97254.50;5366904;23;20059;-85
2021/01/14 09:01:01;;;;;;;24.17;13.80;;;;;;;-1.12;82.43;97329.34;3171953;23;20317;-88
2021/01/14 09:03:26;;;;;;;18.65;13.48;;;;;;;-1.42;83.10;97301.91;4897814;29;20075;-88
2021/01/14 09:08:28;;;;;;;18.38;10.75;;;;;;;-1.20;81.93;97294.88;5617966;23;20093;-87
2021/01/14 09:10:55;;;;;;;26.50;11.43;;;;;;;-1.06;82.45;97304.25;4928187;28;20023;-84
2021/01/14 09:13:33;;;;;;;21.48;11.55;;;;;;;-0.77;81.56;97323.91;4952259;29;20032;-87
2021/01/14 09:16:23;;;;;;;17.63;11.30;;;;;;;-0.68;80.94;97327.81;4927788;29;20055;-87
2021/01/14 09:18:48;;;;;;;16.52;10.48;;;;;;;-0.60;80.65;97351.63;4920719;29;20042;-86
2021/01/14 09:21:14;;;;;;;22.42;11.23;;;;;;;-0.60;80.82;97355.13;4919199;29;20005;-88
2021/01/14 09:23:39;;;;;;;15.65;11.07;;;;;;;-0.56;80.58;97333.97;4943934;29;20016;-90
2021/01/14 09:26:11;;;;;;;17.90;11.88;;;;;;;-0.83;81.05;97328.34;4941196;29;20016;-84
2021/01/14 09:28:38;;;;;;;18.75;11.60;;;;;;;-0.64;81.24;97369.25;4941938;29;20031;-87
2021/01/14 09:31:09;;;;;;;18.77;9.00;;;;;;;-0.71;81.21;97380.13;4926229;29;20033;-86
2021/01/14 09:33:37;;;;;;;19.67;9.85;;;;;;;-0.56;80.64;97406.47;4924425;29;20038;-86
2021/01/14 09:36:13;;;;;;;14.27;9.60;;;;;;;-0.75;80.46;97391.59;4929085;29;20027;-90
2021/01/14 09:38:39;;;;;;;15.45;10.38;;;;;;;-0.61;81.95;97411.75;4917463;29;20048;-87
2021/01/14 09:41:06;;;;;;;16.20;9.00;;;;;;;-0.60;82.01;97418.75;4934366;29;20031;-87
2021/01/14 09:43:41;;;;;;;14.60;9.43;;;;;;;-0.46;82.08;97408.53;4958457;29;20015;-85
2021/01/14 09:55:20;;;;;;;21.13;10.30;;;;;;;-0.14;80.35;97413.22;4996263;23;20059;-87
2021/01/14 09:58:01;;;;;;;20.52;10.95;;;;;;;-0.18;80.61;97400.47;4959279;28;20011;-89
2021/01/14 10:00:38;;;;;;;17.30;8.15;;;;;;;-0.27;80.18;97397.38;4942273;29;20108;-93
2021/01/14 10:06:05;;;;;;;19.67;10.10;;;;;;;0.24;80.02;97406.34;4933543;28;20076;-86
2021/01/14 10:08:34;;;;;;;24.75;11.30;;;;;;;0.26;78.74;97390.78;4887089;29;20053;-89
2021/01/14 10:14:03;;;;;;;17.60;9.70;;;;;;;0.22;79.25;97390.44;4893349;29;20108;-88
2021/01/14 10:21:50;;;;;;;23.88;10.98;;;;;;;0.88;78.77;97427.28;5076210;23;20070;-90
2021/01/14 10:24:38;;;;;;;14.00;9.93;;;;;;;1.33;77.82;97450.53;4974902;28;20091;-87
2021/01/14 10:27:15;;;;;;;17.77;10.20;;;;;;;1.51;75.73;97420.59;4958999;28;20086;-86
2021/01/14 10:29:45;;;;;;;16.45;10.52;;;;;;;1.74;73.82;97409.56;4958267;28;20138;-88
2021/01/14 10:32:16;;;;;;;14.40;8.70;;;;;;;1.70;72.76;97413.81;4966515;28;20142;-91
2021/01/14 10:34:45;;;;;;;20.55;10.80;;;;;;;1.90;73.27;97446.41;4934844;29;20032;-89
2021/01/14 10:37:29;;;;;;;29.17;13.32;;;;;;;2.17;71.80;97419.44;4955721;28;20011;-87
2021/01/14 10:40:04;;;;;;;29.08;12.85;;;;;;;2.58;70.30;97448.44;4934954;29;20043;-91
2021/01/14 10:42:38;;;;;;;18.70;10.75;;;;;;;3.29;67.52;97438.13;4951991;29;20036;-92
2021/01/14 10:45:11;;;;;;;21.35;11.25;;;;;;;3.19;67.02;97433.50;4937958;29;20055;-89
2021/01/14 10:47:39;;;;;;;31.70;13.30;;;;;;;2.96;67.91;97406.88;4951901;29;20034;-90
2021/01/14 10:50:48;;;;;;;37.08;16.33;;;;;;;2.30;71.59;97431.69;4960580;28;20082;-92
2021/01/14 10:53:31;;;;;;;30.42;17.95;;;;;;;2.46;72.38;97422.69;4975239;28;20031;-90
2021/01/14 10:56:20;;;;;;;45.72;21.17;;;;;;;2.82;70.31;97427.28;4967750;29;20035;-86
2021/01/14 10:59:01;;;;;;;34.25;16.52;;;;;;;3.07;70.60;97478.78;4970983;29;20731;-86
2021/01/14 11:01:33;;;;;;;37.90;18.88;;;;;;;3.01;70.44;97443.88;4939806;29;20043;-92
2021/01/14 11:04:28;;;;;;;35.70;18.08;;;;;;;2.94;70.54;97456.81;4956374;29;20047;-89
2021/01/14 11:06:59;;;;;;;28.45;16.15;;;;;;;3.07;69.94;97465.28;4937984;29;20067;-89
2021/01/14 11:10:06;;;;;;;27.48;14.75;;;;;;;2.80;70.74;97423.22;4942173;29;20035;-90
2021/01/14 11:13:20;;;;;;;25.88;15.68;;;;;;;2.97;70.59;97454.44;4953437;29;20042;-92
2021/01/14 11:16:27;;;;;;;24.92;14.13;;;;;;;3.01;69.87;97428.50;4973554;29;20059;-84
2021/01/14 11:19:35;;;;;;;37.60;16.88;;;;;;;2.64;70.69;97403.38;4955268;29;20032;-89
2021/01/14 11:53:41;;;;;;;29.55;16.15;;;;;;;3.47;70.73;97455.81;5974611;23;20006;-90
2021/01/14 11:56:08;;;;;;;25.77;14.60;;;;;;;3.30;70.70;97455.16;4924190;29;20096;-87
2021/01/14 11:58:35;;;;;;;29.85;15.65;;;;;;;2.90;71.60;97450.31;4927790;29;20031;-87
2021/01/14 12:01:03;;;;;;;21.80;14.07;;;;;;;2.77;72.71;97450.75;4943727;29;20116;-84
2021/01/14 12:03:31;;;;;;;24.80;13.77;;;;;;;2.69;73.41;97454.75;4922731;29;20060;-88
2021/01/14 12:05:56;;;;;;;23.73;15.82;;;;;;;2.66;73.50;97472.25;4939453;29;20067;-87
2021/01/14 12:08:27;;;;;;;20.95;14.70;;;;;;;2.72;73.28;97459.63;4922585;29;20029;-90
2021/01/14 12:10:53;;;;;;;24.67;14.85;;;;;;;2.42;73.73;97440.44;4923098;29;20032;-89
2021/01/14 12:13:19;;;;;;;26.90;13.90;;;;;;;2.42;74.30;97456.63;4903904;29;20041;-87
2021/01/14 12:15:44;;;;;;;;;;;;;;;2.58;74.36;97491.63;4921092;29;20040;-87
2021/01/14 12:18:10;;;;;;;29.45;14.73;;;;;;;2.29;74.85;97455.16;4908070;29;19922;-85
2021/01/14 12:20:35;;;;;;;29.77;16.58;;;;;;;2.39;75.09;97460.66;4928089;29;20098;-85
2021/01/14 12:23:01;;;;;;;23.50;14.65;;;;;;;2.48;75.15;97471.81;4915046;29;20131;-89
2021/01/14 12:25:27;;;;;;;22.73;14.57;;;;;;;2.57;73.88;97476.47;4916969;29;20029;-91
2021/01/14 12:27:52;;;;;;;24.08;13.90;;;;;;;2.36;73.67;97438.78;4913629;29;20044;-90
2021/01/14 12:30:22;;;;;;;22.88;15.32;;;;;;;2.49;74.01;97492.34;4931522;29;20103;-89
2021/01/14 12:32:48;;;;;;;22.35;12.93;;;;;;;2.35;74.16;97459.53;4900230;29;20032;-89
2021/01/14 12:35:17;;;;;;;25.73;13.15;;;;;;;2.41;74.40;97465.81;4916670;29;20492;-90
2021/01/14 12:37:42;;;;;;;21.08;12.30;;;;;;;2.35;74.39;97456.06;4904317;29;20040;-91
2021/01/14 12:40:09;;;;;;;18.15;12.45;;;;;;;2.28;74.57;97458.13;4918516;29;20017;-89
2021/01/14 12:42:37;;;;;;;22.75;11.93;;;;;;;2.06;74.28;97477.88;4905755;29;20032;-89
2021/01/14 12:45:04;;;;;;;20.77;11.77;;;;;;;2.21;74.62;97489.88;4897748;29;20096;-87
2021/01/14 12:47:42;;;;;;;20.75;12.00;;;;;;;2.26;74.95;97473.75;4916893;29;20032;-92
2021/01/14 12:50:07;;;;;;;22.63;12.20;;;;;;;2.40;73.76;97504.66;4902046;29;20064;-89
2021/01/14 12:52:33;;;;;;;;;;;;;;;2.54;73.36;97511.25;4921778;29;20048;-87
2021/01/14 12:55:14;;;;;;;22.08;12.93;;;;;;;2.51;73.76;97485.59;4921324;29;19924;-89
2021/01/14 13:00:35;;;;;;;19.73;11.15;;;;;;;2.94;73.95;97503.56;4995481;23;20039;-90
2021/01/14 13:03:02;;;;;;;26.42;13.18;;;;;;;2.88;73.05;97490.28;4916615;29;20044;-84
2021/01/14 13:06:14;;;;;;;26.75;14.63;;;;;;;2.90;72.69;97486.22;4904866;29;20036;-92